Time;durP1;ratioP1;P1;durP2;ratioP2;P2;SDS_P1;SDS_P2;PMS_P1;PMS_P2;Temp;Humidity;BMP_temperature;BMP_pressure;BME280_temperature;BME280_humidity;BME280_pressure;Samples;Min_cycle;Max_cycle;Signal;HPM_P1;HPM_P2
2021/01/12 19:15:06;;;;;;;38.45;8.80;;;;;;;20.70;33.65;99251.74;1783520;79;21710;-15
2021/01/12 19:17:35;;;;;;;30.60;8.33;;;;;;;20.62;33.20;99234.94;1744114;81;21156;-16
2021/01/12 19:20:06;;;;;;;40.38;9.25;;;;;;;20.44;32.89;99226.58;1755647;80;21372;-16
2021/01/12 19:22:35;;;;;;;36.25;9.83;;;;;;;20.25;33.31;99212.51;1701683;81;21235;-16
2021/01/12 19:25:05;;;;;;;28.02;8.83;;;;;;;20.04;33.49;99206.57;1725854;81;21208;-16
2021/01/12 19:27:34;;;;;;;27.85;8.38;;;;;;;19.86;33.84;99206.19;1721686;80;21658;-16
2021/01/12 19:30:03;;;;;;;41.10;9.53;;;;;;;19.70;34.18;99201.64;1720273;80;21181;-16
2021/01/12 19:32:34;;;;;;;23.55;8.60;;;;;;;19.56;34.42;99193.37;1777681;80;21284;-15
2021/01/12 19:35:05;;;;;;;33.60;10.08;;;;;;;19.44;34.68;99188.50;1699836;81;21255;-16
2021/01/12 19:37:33;;;;;;;35.28;10.93;;;;;;;19.33;34.21;99187.62;1722059;80;21161;-16
2021/01/12 19:40:04;;;;;;;27.62;9.28;;;;;;;19.19;34.10;99181.52;1760308;80;21213;-16
2021/01/12 19:42:31;;;;;;;30.40;9.53;;;;;;;19.04;33.75;99176.85;1752796;81;21177;-16
2021/01/12 19:44:59;;;;;;;27.52;9.53;;;;;;;18.89;33.35;99171.34;1694113;83;21859;-15
2021/01/12 19:47:27;;;;;;;21.23;10.38;;;;;;;18.79;33.38;99177.80;1711741;81;21188;-15
2021/01/12 19:49:56;;;;;;;20.05;9.20;;;;;;;18.70;33.01;99162.50;1722570;83;21162;-15
2021/01/12 19:52:25;;;;;;;26.95;10.35;;;;;;;18.56;32.89;99161.70;1704775;83;21200;-15
2021/01/12 19:54:56;;;;;;;19.12;9.20;;;;;;;18.44;32.59;99151.09;1676159;82;21216;-15
2021/01/12 19:57:26;;;;;;;17.60;9.83;;;;;;;18.33;32.20;99141.23;1671997;84;21249;-15
2021/01/12 19:59:55;;;;;;;21.35;10.60;;;;;;;18.23;32.22;99155.69;1704985;82;21175;-19
2021/01/12 20:02:23;;;;;;;32.98;18.00;;;;;;;18.07;29.85;99157.28;1719647;82;21177;-16
2021/01/12 20:04:52;;;;;;;23.85;14.25;;;;;;;17.75;30.41;99152.39;1671511;82;21651;-14
2021/01/12 20:07:19;;;;;;;21.75;12.90;;;;;;;17.51;29.76;99150.94;1712471;82;21669;-16
2021/01/12 20:09:49;;;;;;;19.23;12.82;;;;;;;17.27;28.25;99146.84;1681435;84;21209;-18
2021/01/12 20:12:18;;;;;;;17.67;12.30;;;;;;;17.01;28.02;99152.12;1691923;84;21636;-17
2021/01/12 20:14:47;;;;;;;18.80;12.13;;;;;;;16.82;27.94;99149.78;1634617;84;21213;-15
2021/01/12 20:17:23;;;;;;;19.82;12.03;;;;;;;16.63;27.30;99144.00;1642603;84;21230;-17
2021/01/12 20:19:54;;;;;;;17.67;12.65;;;;;;;16.46;27.39;99151.75;1674431;84;21214;-23
2021/01/12 20:22:26;;;;;;;17.70;12.37;;;;;;;16.30;27.03;99159.34;1697096;82;21212;-16
2021/01/12 20:24:53;;;;;;;16.00;12.35;;;;;;;16.13;26.95;99164.88;1716468;82;21205;-16
2021/01/12 20:27:23;;;;;;;18.25;12.58;;;;;;;15.93;26.86;99170.95;1734846;81;21139;-17
2021/01/12 20:29:54;;;;;;;18.15;12.80;;;;;;;15.73;27.24;99179.27;1740602;81;21198;-16
2021/01/12 20:32:24;;;;;;;18.82;12.07;;;;;;;15.58;27.67;99184.58;1697078;82;21611;-15
2021/01/12 20:34:54;;;;;;;15.43;12.25;;;;;;;15.45;27.01;99176.98;1704730;83;21379;-14
2021/01/12 20:37:23;;;;;;;15.10;11.33;;;;;;;15.28;27.29;99180.64;1707631;81;21152;-14
2021/01/12 20:39:52;;;;;;;15.32;10.63;;;;;;;15.12;27.75;99182.00;1698628;83;21196;-17
2021/01/12 20:42:19;;;;;;;16.73;11.25;;;;;;;15.02;27.90;99182.16;1728121;82;21181;-14
2021/01/12 20:44:48;;;;;;;19.32;10.00;;;;;;;14.95;28.19;99187.45;1739615;82;21596;-18
2021/01/12 20:47:17;;;;;;;12.07;9.58;;;;;;;14.89;28.37;99193.09;1726488;82;22303;-16
2021/01/12 20:49:50;;;;;;;14.65;10.30;;;;;;;14.86;28.96;99189.68;1714704;82;21162;-15
2021/01/12 20:52:17;;;;;;;14.75;9.60;;;;;;;14.89;29.19;99181.17;1720659;80;21159;-15
2021/01/12 20:54:47;;;;;;;23.20;9.78;;;;;;;14.95;29.97;99170.23;1755750;80;21197;-14
2021/01/12 20:57:15;;;;;;;28.38;10.38;;;;;;;15.13;30.80;99163.84;1718440;82;21597;-20
2021/01/12 20:59:43;;;;;;;54.20;30.17;;;;;;;15.42;32.91;99146.67;1719688;82;21216;-18
2021/01/12 21:02:11;;;;;;;41.08;20.50;;;;;;;15.69;33.19;99143.28;1733141;82;21183;-16
2021/01/12 21:04:39;;;;;;;42.13;19.95;;;;;;;15.85;33.59;99140.06;1714198;82;21134;-19
2021/01/12 21:07:07;;;;;;;39.42;16.85;;;;;;;16.01;34.11;99133.83;1733818;82;21178;-20
2021/01/12 21:09:35;;;;;;;29.95;16.25;;;;;;;16.19;35.16;99136.64;1738438;82;21606;-16
2021/01/12 21:12:06;;;;;;;33.40;15.68;;;;;;;16.38;35.72;99131.47;1672375;83;21204;-20
2021/01/12 21:14:34;;;;;;;33.13;14.15;;;;;;;16.56;36.13;99127.62;1726371;81;21189;-16
2021/01/12 21:17:10;;;;;;;36.25;13.00;;;;;;;16.74;38.43;99137.97;1728092;80;21262;-15
2021/01/12 21:19:42;;;;;;;34.78;12.58;;;;;;;16.95;39.85;99143.70;1767203;80;21172;-18
2021/01/12 21:22:10;;;;;;;37.15;11.75;;;;;;;17.15;40.79;99141.04;1716642;82;21136;-18
2021/01/12 21:24:37;;;;;;;27.13;11.78;;;;;;;17.32;40.49;99142.06;1742986;81;21191;-22
2021/01/12 21:27:08;;;;;;;35.55;11.20;;;;;;;17.49;40.17;99145.38;1719202;80;21166;-16
2021/01/12 21:29:36;;;;;;;31.30;10.43;;;;;;;17.62;39.83;99146.22;1743350;80;21141;-19
2021/01/12 21:32:10;;;;;;;28.75;11.15;;;;;;;17.72;39.52;99144.62;1731338;80;21124;-15
2021/01/12 21:34:38;;;;;;;30.43;11.60;;;;;;;17.83;39.32;99132.72;1717837;80;21230;-24
2021/01/12 21:37:07;;;;;;;28.67;10.40;;;;;;;17.95;39.08;99131.52;1731419;80;21191;-14
2021/01/12 21:39:35;;;;;;;26.70;10.23;;;;;;;18.03;38.82;99123.84;1763310;80;21112;-15
2021/01/12 21:42:03;;;;;;;24.87;10.28;;;;;;;18.14;38.68;99118.59;1784354;80;21625;-14
2021/01/12 21:44:31;;;;;;;23.02;9.55;;;;;;;18.23;38.54;99108.24;1775906;80;21177;-18
2021/01/12 21:46:59;;;;;;;26.77;9.53;;;;;;;18.33;38.40;99098.61;1746285;80;21133;-18
2021/01/12 21:49:27;;;;;;;28.10;10.20;;;;;;;18.41;38.26;99092.24;1783993;80;22284;-18
2021/01/12 21:51:55;;;;;;;22.05;9.38;;;;;;;18.49;38.24;99093.86;1683764;83;21144;-16
2021/01/12 21:54:23;;;;;;;21.65;8.90;;;;;;;18.57;38.35;99091.45;1780076;80;21613;-14
2021/01/12 21:56:51;;;;;;;18.37;8.65;;;;;;;18.64;38.32;99085.67;1773606;80;22344;-16
2021/01/12 21:59:19;;;;;;;26.30;9.03;;;;;;;18.70;38.18;99085.22;1713661;82;21241;-16
2021/01/12 22:01:48;;;;;;;17.10;8.35;;;;;;;18.75;38.05;99077.73;1733184;80;21163;-18
2021/01/12 22:04:17;;;;;;;21.05;8.33;;;;;;;18.80;37.96;99067.56;1715727;80;21180;-21
2021/01/12 22:06:45;;;;;;;20.50;9.13;;;;;;;18.85;37.88;99060.10;1733208;80;21132;-21
2021/01/12 22:09:13;;;;;;;25.88;8.85;;;;;;;18.89;37.75;99058.05;1771157;80;21166;-22
2021/01/12 22:11:41;;;;;;;21.85;8.20;;;;;;;18.93;37.66;99056.37;1697368;81;21132;-18
2021/01/12 22:14:09;;;;;;;16.40;8.50;;;;;;;18.99;37.55;99043.53;1741419;81;21233;-15
2021/01/12 22:16:36;;;;;;;18.23;7.78;;;;;;;19.03;37.49;99023.66;1720308;80;21173;-16
2021/01/12 22:19:08;;;;;;;19.65;7.83;;;;;;;19.06;37.41;99019.42;1703324;82;21169;-22
2021/01/12 22:21:44;;;;;;;18.02;7.50;;;;;;;19.12;37.28;99017.62;1751100;80;21135;-18
2021/01/12 22:24:12;;;;;;;17.05;8.03;;;;;;;19.16;37.18;99020.40;1756859;80;21190;-19
2021/01/12 22:26:40;;;;;;;16.87;7.40;;;;;;;19.20;37.12;99014.33;1705972;80;21177;-18
2021/01/12 22:29:09;;;;;;;14.07;7.12;;;;;;;19.24;37.09;99016.65;1644661;83;21654;-15
2021/01/12 22:31:37;;;;;;;18.27;7.62;;;;;;;19.27;37.01;99016.41;1751125;80;21121;-17
2021/01/12 22:34:06;;;;;;;16.02;7.67;;;;;;;19.31;36.92;99011.19;1756887;80;21178;-19
2021/01/12 22:36:35;;;;;;;16.37;7.37;;;;;;;19.36;36.83;99001.98;1751144;80;21135;-19
2021/01/12 22:39:05;;;;;;;15.70;7.37;;;;;;;19.38;36.75;98989.38;1720417;80;21195;-23
2021/01/12 22:41:32;;;;;;;17.45;7.50;;;;;;;19.40;36.73;98978.95;1726843;82;21197;-21
2021/01/12 22:44:00;;;;;;;17.32;7.42;;;;;;;19.45;36.67;98975.44;1745996;80;21152;-19
2021/01/12 22:46:28;;;;;;;13.93;6.67;;;;;;;19.48;36.60;98973.86;1705892;80;21648;-14
2021/01/12 22:48:56;;;;;;;12.47;6.85;;;;;;;19.52;36.58;98967.78;1741231;80;21172;-25
2021/01/12 22:51:24;;;;;;;15.78;6.60;;;;;;;19.55;36.53;98964.87;1719202;80;21182;-18
2021/01/12 22:53:52;;;;;;;15.28;6.67;;;;;;;19.58;36.47;98959.27;1707491;82;21610;-15
2021/01/12 22:56:22;;;;;;;14.83;6.15;;;;;;;19.60;36.43;98960.02;1718678;80;21585;-19
2021/01/12 22:58:51;;;;;;;16.17;7.60;;;;;;;19.63;36.35;98959.73;1726923;80;21169;-19
2021/01/12 23:01:19;;;;;;;16.17;6.55;;;;;;;19.66;36.32;98964.83;1748241;80;21144;-17
2021/01/12 23:03:48;;;;;;;19.17;6.33;;;;;;;19.68;36.28;98965.55;1730238;80;21263;-16
2021/01/12 23:06:17;;;;;;;21.60;6.47;;;;;;;19.72;36.33;98970.64;1732842;82;21123;-26
2021/01/12 23:08:45;;;;;;;17.32;6.15;;;;;;;19.75;36.48;98969.09;1751059;80;21582;-18
2021/01/12 23:11:13;;;;;;;16.93;6.10;;;;;;;19.80;36.60;98969.56;1767999;80;21184;-19
2021/01/12 23:13:41;;;;;;;16.40;5.62;;;;;;;19.82;36.63;98971.62;1737889;80;22188;-20
2021/01/12 23:16:09;;;;;;;19.15;6.50;;;;;;;19.85;36.66;98972.70;1736542;82;21176;-14
2021/01/12 23:18:37;;;;;;;16.48;6.17;;;;;;;19.87;36.72;98958.77;1710603;80;21175;-21
2021/01/12 23:21:05;;;;;;;10.48;5.85;;;;;;;19.90;36.75;98949.64;1715495;80;21212;-15
2021/01/12 23:23:33;;;;;;;11.83;5.85;;;;;;;19.92;36.80;98951.23;1737176;80;21657;-18
2021/01/12 23:26:02;;;;;;;12.60;5.83;;;;;;;19.95;36.81;98951.45;1771686;80;21188;-17
2021/01/12 23:28:30;;;;;;;10.48;5.62;;;;;;;19.98;36.85;98942.69;1731275;81;22103;-16
2021/01/12 23:30:58;;;;;;;11.38;5.50;;;;;;;19.98;36.90;98932.01;1735478;80;21153;-19
2021/01/12 23:33:26;;;;;;;12.07;5.58;;;;;;;20.00;36.93;98930.05;1774134;80;21157;-18
2021/01/12 23:35:54;;;;;;;9.10;5.30;;;;;;;20.03;36.95;98928.97;1702127;82;21149;-18
2021/01/12 23:38:23;;;;;;;15.83;5.20;;;;;;;20.04;36.98;98928.84;1710201;82;22140;-17
2021/01/12 23:40:52;;;;;;;16.40;5.70;;;;;;;20.08;37.01;98928.59;1691371;82;21306;-16
2021/01/12 23:43:20;;;;;;;9.95;5.58;;;;;;;20.09;37.06;98920.92;1720165;82;21594;-17
2021/01/12 23:45:48;;;;;;;13.13;5.87;;;;;;;20.12;37.08;98920.67;1769206;80;21177;-15
2021/01/12 23:48:16;;;;;;;11.95;5.08;;;;;;;20.13;37.14;98910.36;1720748;80;21172;-20
2021/01/12 23:50:45;;;;;;;10.80;5.25;;;;;;;20.14;37.20;98908.89;1743886;82;21137;-18
2021/01/12 23:53:18;;;;;;;9.55;5.40;;;;;;;20.16;37.28;98911.44;1721248;80;22210;-17
2021/01/12 23:55:43;;;;;;;8.95;5.08;;;;;;;20.17;37.35;98905.97;1720978;82;21136;-16
2021/01/12 23:58:11;;;;;;;12.23;5.55;;;;;;;20.19;37.39;98908.48;1723632;80;21573;-16
